Wetterdaten: Woche 24.07.17 - 30.07.17 (KW30)
Datum Zeit Temp. A. Feuchte A. Luftdruck Regen Wind Richtung Taupunkt Windchill Windben
24.07.2017 00:00 10,8 C 94 % 1013,9 hPa 0,0 l/m 0,0 km/h (0 Bft) O-NO 9,8 C 10,8 C 0,3 km/h (0 Bft)
24.07.2017 01:00 10,1 C 94 % 1013,3 hPa 0,0 l/m 0,0 km/h (0 Bft) O-NO 9,3 C 10,1 C 0,1 km/h (0 Bft)
24.07.2017 02:00 10,1 C 95 % 1012,4 hPa 0,0 l/m 0,0 km/h (0 Bft) O-NO 9,4 C 10,1 C 0,5 km/h (0 Bft)
24.07.2017 03:00 10,2 C 96 % 1011,3 hPa 0,0 l/m 0,2 km/h (0 Bft) O-NO 9,6 C 10,2 C 1,5 km/h (1 Bft)
24.07.2017 04:00 10,9 C 94 % 1010,2 hPa 0,0 l/m 0,1 km/h (0 Bft) NO 10,0 C 10,9 C 1,2 km/h (1 Bft)
24.07.2017 05:00 11,7 C 92 % 1009,1 hPa 0,0 l/m 0,5 km/h (0 Bft) N 10,4 C 11,7 C 2,5 km/h (1 Bft)
24.07.2017 06:00 12,6 C 87 % 1008,5 hPa 0,0 l/m 2,2 km/h (1 Bft) N 10,5 C 12,6 C 5,7 km/h (2 Bft)
24.07.2017 07:00 14,0 C 84 % 1007,7 hPa 0,0 l/m 2,3 km/h (1 Bft) O 11,4 C 14,0 C 6,4 km/h (2 Bft)
24.07.2017 08:00 13,7 C 91 % 1007,3 hPa 1,8 l/m 3,7 km/h (1 Bft) NO 12,3 C 13,7 C 8,7 km/h (2 Bft)
24.07.2017 09:00 13,6 C 94 % 1007,3 hPa 1,0 l/m 6,0 km/h (2 Bft) NO 12,7 C 13,4 C 16,2 km/h (3 Bft)
24.07.2017 10:00 13,3 C 89 % 1008,5 hPa 0,0 l/m 4,6 km/h (1 Bft) O-NO 11,6 C 13,3 C 14,6 km/h (3 Bft)
24.07.2017 11:00 13,3 C 87 % 1009,2 hPa 0,0 l/m 2,9 km/h (1 Bft) NO 11,1 C 13,3 C 6,8 km/h (2 Bft)
24.07.2017 12:00 13,6 C 85 % 1009,4 hPa 0,0 l/m 3,6 km/h (1 Bft) O-NO 11,2 C 13,6 C 9,2 km/h (2 Bft)
24.07.2017 13:00 14,6 C 81 % 1009,6 hPa 0,0 l/m 5,1 km/h (1 Bft) NO 11,4 C 14,4 C 12,9 km/h (3 Bft)
24.07.2017 14:00 15,3 C 78 % 1009,6 hPa 0,0 l/m 5,6 km/h (2 Bft) O 11,4 C 15,1 C 14,6 km/h (3 Bft)
24.07.2017 15:00 16,6 C 71 % 1009,6 hPa 0,0 l/m 5,7 km/h (2 Bft) NO 11,4 C 16,5 C 13,8 km/h (3 Bft)
24.07.2017 16:00 15,1 C 80 % 1009,8 hPa 0,8 l/m 3,4 km/h (1 Bft) S 11,6 C 15,0 C 9,8 km/h (2 Bft)
24.07.2017 17:00 13,1 C 89 % 1010,6 hPa 1,3 l/m 3,0 km/h (1 Bft) O 11,3 C 13,1 C 8,7 km/h (2 Bft)
24.07.2017 18:00 13,2 C 90 % 1010,5 hPa 0,0 l/m 3,5 km/h (1 Bft) O-NO 11,6 C 13,2 C 8,0 km/h (2 Bft)
24.07.2017 19:00 12,7 C 91 % 1010,6 hPa 0,0 l/m 3,3 km/h (1 Bft) NO 11,3 C 12,7 C 7,9 km/h (2 Bft)
24.07.2017 20:00 12,4 C 92 % 1010,7 hPa 0,3 l/m 2,7 km/h (1 Bft) O-NO 11,1 C 12,4 C 7,0 km/h (2 Bft)
24.07.2017 21:00 11,8 C 94 % 1010,9 hPa 0,3 l/m 1,1 km/h (0 Bft) O-NO 10,8 C 11,8 C 4,1 km/h (1 Bft)
24.07.2017 22:00 11,5 C 95 % 1010,8 hPa 0,3 l/m 1,9 km/h (1 Bft) O-NO 10,7 C 11,5 C 5,7 km/h (2 Bft)
24.07.2017 23:00 11,3 C 96 % 1010,4 hPa 6,1 l/m 0,7 km/h (0 Bft) O 10,7 C 11,3 C 2,5 km/h (1 Bft)
25.07.2017 00:00 11,5 C 96 % 1010,4 hPa 1,8 l/m 1,8 km/h (1 Bft) O 10,8 C 11,5 C 4,8 km/h (1 Bft)
25.07.2017 01:00 11,7 C 95 % 1010,3 hPa 2,0 l/m 2,1 km/h (1 Bft) O 10,9 C 11,7 C 7,0 km/h (2 Bft)
25.07.2017 02:00 11,6 C 94 % 1010,4 hPa 0,3 l/m 2,8 km/h (1 Bft) O-NO 10,7 C 11,6 C 7,9 km/h (2 Bft)
25.07.2017 03:00 11,4 C 94 % 1010,5 hPa 0,0 l/m 2,1 km/h (1 Bft) O-NO 10,5 C 11,4 C 7,5 km/h (2 Bft)
25.07.2017 04:00 11,1 C 94 % 1010,4 hPa 0,0 l/m 2,8 km/h (1 Bft) O 10,1 C 11,1 C 8,4 km/h (2 Bft)
25.07.2017 05:00 10,8 C 95 % 1010,2 hPa 0,3 l/m 1,8 km/h (1 Bft) O-NO 10,0 C 10,8 C 5,6 km/h (2 Bft)
25.07.2017 06:00 10,8 C 95 % 1010,0 hPa 0,0 l/m 2,7 km/h (1 Bft) O-NO 10,0 C 10,8 C 7,6 km/h (2 Bft)
25.07.2017 07:00 10,9 C 95 % 1009,9 hPa 0,3 l/m 2,5 km/h (1 Bft) O-NO 10,2 C 10,9 C 6,8 km/h (2 Bft)
25.07.2017 08:00 11,1 C 95 % 1010,0 hPa 0,3 l/m 2,7 km/h (1 Bft) O-NO 10,2 C 11,1 C 8,0 km/h (2 Bft)
25.07.2017 09:00 11,2 C 94 % 1010,2 hPa 0,3 l/m 4,1 km/h (1 Bft) O-NO 10,2 C 11,2 C 12,5 km/h (2 Bft)
25.07.2017 10:00 11,3 C 93 % 1010,3 hPa 0,0 l/m 4,6 km/h (1 Bft) O-NO 10,2 C 11,2 C 13,0 km/h (3 Bft)
25.07.2017 11:00 11,8 C 92 % 1010,3 hPa 1,0 l/m 4,3 km/h (1 Bft) O-NO 10,6 C 11,7 C 9,6 km/h (2 Bft)
25.07.2017 12:00 11,5 C 94 % 1010,4 hPa 1,3 l/m 3,5 km/h (1 Bft) O-NO 10,5 C 11,5 C 9,6 km/h (2 Bft)
25.07.2017 13:00 12,3 C 94 % 1010,4 hPa 1,5 l/m 4,0 km/h (1 Bft) O-NO 11,3 C 12,3 C 11,3 km/h (2 Bft)
25.07.2017 14:00 13,0 C 93 % 1010,5 hPa 0,3 l/m 4,3 km/h (1 Bft) NO 11,8 C 13,0 C 11,4 km/h (2 Bft)
25.07.2017 15:00 13,4 C 91 % 1010,3 hPa 0,0 l/m 5,6 km/h (2 Bft) NO 11,9 C 13,4 C 13,8 km/h (3 Bft)
25.07.2017 16:00 14,3 C 86 % 1010,0 hPa 0,0 l/m 5,4 km/h (1 Bft) O-NO 12,0 C 14,3 C 13,8 km/h (3 Bft)
25.07.2017 17:00 13,5 C 90 % 1009,9 hPa 1,0 l/m 3,2 km/h (1 Bft) O 12,0 C 13,5 C 8,8 km/h (2 Bft)
25.07.2017 18:00 13,9 C 90 % 1009,7 hPa 0,0 l/m 4,0 km/h (1 Bft) O-NO 12,3 C 13,9 C 9,8 km/h (2 Bft)
25.07.2017 19:00 12,7 C 91 % 1010,0 hPa 4,3 l/m 3,4 km/h (1 Bft) O-NO 11,2 C 12,7 C 10,9 km/h (2 Bft)
25.07.2017 20:00 11,4 C 95 % 1009,9 hPa 0,8 l/m 2,3 km/h (1 Bft) O-NO 10,6 C 11,4 C 5,7 km/h (2 Bft)
25.07.2017 21:00 11,6 C 96 % 1009,6 hPa 0,0 l/m 2,3 km/h (1 Bft) O-NO 11,0 C 11,6 C 6,5 km/h (2 Bft)
25.07.2017 22:00 11,6 C 96 % 1009,3 hPa 0,0 l/m 2,5 km/h (1 Bft) O-NO 11,0 C 11,6 C 7,0 km/h (2 Bft)
25.07.2017 23:00 11,8 C 95 % 1009,0 hPa 0,0 l/m 2,9 km/h (1 Bft) O-NO 11,0 C 11,8 C 6,8 km/h (2 Bft)
26.07.2017 00:00 11,8 C 95 % 1008,8 hPa 0,8 l/m 5,0 km/h (1 Bft) NO 11,0 C 11,8 C 11,9 km/h (2 Bft)
26.07.2017 01:00 11,6 C 95 % 1008,5 hPa 1,5 l/m 3,9 km/h (1 Bft) O-NO 10,8 C 11,6 C 11,7 km/h (2 Bft)
26.07.2017 02:00 11,6 C 96 % 1008,1 hPa 2,0 l/m 3,9 km/h (1 Bft) NO 10,9 C 11,6 C 11,4 km/h (2 Bft)
26.07.2017 03:00 11,6 C 95 % 1008,1 hPa 2,3 l/m 5,5 km/h (2 Bft) O-NO 10,9 C 11,5 C 14,6 km/h (3 Bft)
26.07.2017 04:00 11,6 C 96 % 1008,2 hPa 1,5 l/m 5,0 km/h (1 Bft) O 10,9 C 11,6 C 12,8 km/h (3 Bft)
26.07.2017 05:00 11,7 C 96 % 1008,5 hPa 1,3 l/m 3,2 km/h (1 Bft) O 11,1 C 11,7 C 9,4 km/h (2 Bft)
26.07.2017 06:00 11,7 C 96 % 1008,9 hPa 0,8 l/m 2,6 km/h (1 Bft) O-NO 11,1 C 11,7 C 8,7 km/h (2 Bft)
26.07.2017 07:00 11,8 C 96 % 1009,4 hPa 0,0 l/m 1,9 km/h (1 Bft) O 11,1 C 11,8 C 6,6 km/h (2 Bft)
26.07.2017 08:00 11,9 C 96 % 1009,7 hPa 0,3 l/m 3,7 km/h (1 Bft) O 11,3 C 11,9 C 10,5 km/h (2 Bft)
26.07.2017 09:00 12,4 C 95 % 1010,3 hPa 0,3 l/m 4,2 km/h (1 Bft) O 11,7 C 12,4 C 10,5 km/h (2 Bft)
26.07.2017 10:00 12,0 C 96 % 1010,4 hPa 0,0 l/m 5,9 km/h (2 Bft) O-NO 11,3 C 11,9 C 15,6 km/h (3 Bft)
26.07.2017 11:00 12,0 C 96 % 1010,9 hPa 0,0 l/m 4,4 km/h (1 Bft) O 11,3 C 12,0 C 10,0 km/h (2 Bft)
26.07.2017 12:00 12,2 C 95 % 1011,1 hPa 0,5 l/m 4,0 km/h (1 Bft) O-NO 11,4 C 12,2 C 8,0 km/h (2 Bft)
26.07.2017 13:00 12,6 C 95 % 1011,3 hPa 0,3 l/m 5,3 km/h (1 Bft) O 11,9 C 12,4 C 10,3 km/h (2 Bft)
26.07.2017 14:00 13,7 C 93 % 1011,8 hPa 0,0 l/m 5,1 km/h (1 Bft) O-NO 12,5 C 13,7 C 12,6 km/h (3 Bft)
26.07.2017 15:00 14,9 C 89 % 1012,1 hPa 0,0 l/m 4,9 km/h (1 Bft) NO 13,0 C 14,9 C 13,3 km/h (3 Bft)
26.07.2017 16:00 16,8 C 81 % 1011,8 hPa 0,0 l/m 5,3 km/h (1 Bft) NO 13,5 C 16,8 C 12,9 km/h (3 Bft)
26.07.2017 17:00 17,6 C 77 % 1011,8 hPa 0,0 l/m 4,8 km/h (1 Bft) O-NO 13,4 C 17,6 C 11,5 km/h (2 Bft)
26.07.2017 18:00 17,4 C 75 % 1011,8 hPa 0,0 l/m 4,3 km/h (1 Bft) O-NO 12,9 C 17,4 C 9,9 km/h (2 Bft)
26.07.2017 19:00 16,3 C 79 % 1011,9 hPa 0,0 l/m 2,6 km/h (1 Bft) NO 12,7 C 16,3 C 6,4 km/h (2 Bft)
26.07.2017 20:00 14,9 C 85 % 1012,1 hPa 0,0 l/m 0,6 km/h (0 Bft) O-NO 12,4 C 14,9 C 2,3 km/h (1 Bft)
26.07.2017 21:00 12,5 C 91 % 1012,4 hPa 0,0 l/m 0,0 km/h (0 Bft) O-NO 11,2 C 12,5 C 0,3 km/h (0 Bft)
26.07.2017 22:00 11,0 C 94 % 1012,6 hPa 0,0 l/m 0,0 km/h (0 Bft) O-NO 10,1 C 11,0 C 0,1 km/h (0 Bft)
26.07.2017 23:00 10,2 C 96 % 1012,5 hPa 0,0 l/m 0,2 km/h (0 Bft) O-NO 9,6 C 10,2 C 0,7 km/h (0 Bft)
27.07.2017 00:00 10,1 C 96 % 1012,5 hPa 0,0 l/m 0,1 km/h (0 Bft) O 9,4 C 10,1 C 0,5 km/h (0 Bft)
27.07.2017 01:00 9,7 C 96 % 1012,2 hPa 0,0 l/m 0,2 km/h (0 Bft) O 9,0 C 9,7 C 1,2 km/h (1 Bft)
27.07.2017 02:00 10,3 C 96 % 1012,0 hPa 0,0 l/m 1,0 km/h (0 Bft) O 9,7 C 10,3 C 4,1 km/h (1 Bft)
27.07.2017 03:00 10,9 C 95 % 1011,7 hPa 0,0 l/m 0,3 km/h (0 Bft) O-NO 10,1 C 10,9 C 1,7 km/h (1 Bft)
27.07.2017 04:00 11,1 C 96 % 1011,4 hPa 0,0 l/m 0,1 km/h (0 Bft) O-NO 10,5 C 11,1 C 1,3 km/h (1 Bft)
27.07.2017 05:00 12,8 C 96 % 1011,1 hPa 0,0 l/m 2,9 km/h (1 Bft) NO 12,2 C 12,8 C 7,4 km/h (2 Bft)
27.07.2017 06:00 12,9 C 96 % 1011,0 hPa 0,3 l/m 1,0 km/h (0 Bft) O-NO 12,3 C 12,9 C 2,7 km/h (1 Bft)
27.07.2017 07:00 13,0 C 97 % 1010,9 hPa 0,5 l/m 1,1 km/h (1 Bft) O-NO 12,6 C 13,0 C 3,7 km/h (1 Bft)
27.07.2017 08:00 14,0 C 96 % 1011,1 hPa 0,0 l/m 4,6 km/h (1 Bft) O-NO 13,4 C 14,0 C 13,2 km/h (3 Bft)
27.07.2017 09:00 14,5 C 96 % 1011,4 hPa 0,3 l/m 3,1 km/h (1 Bft) NO 13,8 C 14,5 C 8,8 km/h (2 Bft)
27.07.2017 10:00 15,7 C 94 % 1011,4 hPa 0,0 l/m 5,2 km/h (1 Bft) O-NO 14,7 C 15,7 C 13,6 km/h (3 Bft)
27.07.2017 11:00 16,8 C 88 % 1011,3 hPa 0,0 l/m 4,7 km/h (1 Bft) O-NO 14,8 C 16,7 C 10,9 km/h (2 Bft)
27.07.2017 12:00 17,0 C 88 % 1011,1 hPa 0,0 l/m 5,3 km/h (1 Bft) NO 14,9 C 16,9 C 11,6 km/h (2 Bft)
27.07.2017 13:00 18,1 C 83 % 1010,9 hPa 0,0 l/m 4,2 km/h (1 Bft) O 15,2 C 18,1 C 10,6 km/h (2 Bft)
27.07.2017 14:00 17,6 C 84 % 1010,6 hPa 0,0 l/m 4,4 km/h (1 Bft) NO 15,0 C 17,6 C 10,6 km/h (2 Bft)
27.07.2017 15:00 17,8 C 85 % 1010,2 hPa 0,0 l/m 2,9 km/h (1 Bft) O-NO 15,2 C 17,8 C 8,0 km/h (2 Bft)
27.07.2017 16:00 19,0 C 80 % 1009,9 hPa 0,0 l/m 4,9 km/h (1 Bft) O-NO 15,4 C 18,9 C 12,9 km/h (3 Bft)
27.07.2017 17:00 19,5 C 77 % 1009,9 hPa 0,0 l/m 5,1 km/h (1 Bft) NO 15,3 C 19,4 C 13,6 km/h (3 Bft)
27.07.2017 18:00 18,9 C 78 % 1009,6 hPa 0,0 l/m 5,4 km/h (1 Bft) O-NO 15,0 C 18,9 C 14,0 km/h (3 Bft)
27.07.2017 19:00 17,5 C 83 % 1009,5 hPa 0,0 l/m 4,3 km/h (1 Bft) O 14,6 C 17,5 C 11,5 km/h (2 Bft)
27.07.2017 20:00 16,8 C 86 % 1009,4 hPa 0,0 l/m 2,5 km/h (1 Bft) O-NO 14,5 C 16,8 C 7,1 km/h (2 Bft)
27.07.2017 21:00 16,1 C 89 % 1009,4 hPa 0,0 l/m 0,2 km/h (0 Bft) S 14,4 C 16,1 C 1,9 km/h (1 Bft)
27.07.2017 22:00 15,6 C 93 % 1009,4 hPa 0,3 l/m 0,7 km/h (0 Bft) O-NO 14,5 C 15,6 C 3,3 km/h (1 Bft)
27.07.2017 23:00 15,2 C 94 % 1009,9 hPa 4,6 l/m 2,6 km/h (1 Bft) O 14,1 C 15,2 C 7,0 km/h (2 Bft)
28.07.2017 00:00 14,7 C 94 % 1010,1 hPa 0,0 l/m 1,4 km/h (1 Bft) O-NO 13,7 C 14,7 C 5,4 km/h (2 Bft)
28.07.2017 01:00 14,4 C 95 % 1010,7 hPa 0,0 l/m 2,8 km/h (1 Bft) O-NO 13,6 C 14,4 C 8,1 km/h (2 Bft)
28.07.2017 02:00 14,0 C 95 % 1010,9 hPa 0,0 l/m 3,1 km/h (1 Bft) O-NO 13,3 C 14,0 C 8,3 km/h (2 Bft)
28.07.2017 03:00 13,5 C 95 % 1011,0 hPa 0,0 l/m 1,5 km/h (1 Bft) O 12,8 C 13,5 C 4,9 km/h (1 Bft)
28.07.2017 04:00 13,2 C 96 % 1011,1 hPa 0,0 l/m 0,9 km/h (0 Bft) O-NO 12,6 C 13,2 C 3,7 km/h (1 Bft)
28.07.2017 05:00 13,2 C 96 % 1011,4 hPa 0,0 l/m 0,5 km/h (0 Bft) O-NO 12,6 C 13,2 C 2,7 km/h (1 Bft)
28.07.2017 06:00 13,3 C 97 % 1012,1 hPa 0,0 l/m 0,1 km/h (0 Bft) O-NO 12,8 C 13,3 C 0,9 km/h (0 Bft)
28.07.2017 07:00 13,5 C 97 % 1012,7 hPa 0,0 l/m 0,2 km/h (0 Bft) O-NO 13,1 C 13,5 C 0,8 km/h (0 Bft)
28.07.2017 08:00 14,1 C 94 % 1013,3 hPa 0,0 l/m 0,4 km/h (0 Bft) O-NO 13,1 C 14,1 C 2,0 km/h (1 Bft)
28.07.2017 09:00 15,0 C 89 % 1014,0 hPa 0,0 l/m 2,2 km/h (1 Bft) O 13,3 C 15,0 C 6,7 km/h (2 Bft)
28.07.2017 10:00 15,8 C 85 % 1014,2 hPa 0,0 l/m 3,0 km/h (1 Bft) O-NO 13,3 C 15,8 C 8,2 km/h (2 Bft)
28.07.2017 11:00 16,8 C 76 % 1014,8 hPa 0,0 l/m 3,8 km/h (1 Bft) O-NO 12,6 C 16,8 C 8,8 km/h (2 Bft)
28.07.2017 12:00 16,9 C 76 % 1015,0 hPa 0,0 l/m 4,0 km/h (1 Bft) O-NO 12,6 C 16,9 C 8,8 km/h (2 Bft)
28.07.2017 13:00 17,3 C 76 % 1015,1 hPa 0,0 l/m 4,1 km/h (1 Bft) NO 13,1 C 17,3 C 10,5 km/h (2 Bft)
28.07.2017 14:00 19,7 C 66 % 1014,9 hPa 0,0 l/m 5,7 km/h (2 Bft) O-NO 13,2 C 19,6 C 14,9 km/h (3 Bft)
28.07.2017 15:00 19,8 C 64 % 1014,9 hPa 0,0 l/m 2,6 km/h (1 Bft) O 12,7 C 19,8 C 7,0 km/h (2 Bft)
28.07.2017 16:00 20,1 C 62 % 1015,0 hPa 0,0 l/m 4,5 km/h (1 Bft) O 12,4 C 20,1 C 11,7 km/h (2 Bft)
28.07.2017 17:00 21,0 C 58 % 1014,9 hPa 0,0 l/m 5,5 km/h (2 Bft) NO 12,3 C 21,0 C 13,7 km/h (3 Bft)
28.07.2017 18:00 20,0 C 61 % 1014,8 hPa 0,0 l/m 4,3 km/h (1 Bft) O 12,4 C 20,0 C 10,9 km/h (2 Bft)
28.07.2017 19:00 19,6 C 63 % 1014,8 hPa 0,0 l/m 2,7 km/h (1 Bft) O-NO 12,5 C 19,6 C 7,2 km/h (2 Bft)
28.07.2017 20:00 18,0 C 75 % 1014,8 hPa 0,0 l/m 0,1 km/h (0 Bft) O 13,6 C 18,0 C 1,1 km/h (0 Bft)
28.07.2017 21:00 15,9 C 85 % 1015,5 hPa 0,0 l/m 0,0 km/h (0 Bft) O 13,4 C 15,9 C 0,0 km/h (0 Bft)
28.07.2017 22:00 14,7 C 90 % 1016,0 hPa 0,0 l/m 0,0 km/h (0 Bft) O 13,1 C 14,7 C 0,4 km/h (0 Bft)
28.07.2017 23:00 14,1 C 92 % 1016,1 hPa 0,0 l/m 0,0 km/h (0 Bft) O 12,8 C 14,1 C 0,2 km/h (0 Bft)
29.07.2017 00:00 14,0 C 92 % 1016,0 hPa 0,0 l/m 0,0 km/h (0 Bft) O 12,7 C 14,0 C 0,0 km/h (0 Bft)
29.07.2017 01:00 13,6 C 92 % 1016,1 hPa 0,0 l/m 0,0 km/h (0 Bft) O 12,3 C 13,6 C 0,0 km/h (0 Bft)
29.07.2017 02:00 12,4 C 93 % 1015,9 hPa 0,0 l/m 0,0 km/h (0 Bft) O 11,3 C 12,4 C 0,0 km/h (0 Bft)
29.07.2017 03:00 11,2 C 94 % 1015,8 hPa 0,0 l/m 0,0 km/h (0 Bft) O 10,3 C 11,2 C 0,0 km/h (0 Bft)
29.07.2017 04:00 10,3 C 95 % 1015,9 hPa 0,0 l/m 0,0 km/h (0 Bft) O 9,6 C 10,3 C 0,5 km/h (0 Bft)
29.07.2017 05:00 10,0 C 96 % 1016,2 hPa 0,0 l/m 0,1 km/h (0 Bft) O 9,4 C 10,0 C 1,2 km/h (1 Bft)
29.07.2017 06:00 9,7 C 96 % 1016,3 hPa 0,0 l/m 0,0 km/h (0 Bft) O 9,2 C 9,7 C 0,0 km/h (0 Bft)
29.07.2017 07:00 11,3 C 97 % 1016,4 hPa 0,0 l/m 0,0 km/h (0 Bft) O 10,8 C 11,3 C 0,3 km/h (0 Bft)
29.07.2017 08:00 16,9 C 80 % 1016,6 hPa 0,0 l/m 1,4 km/h (1 Bft) O 13,4 C 16,9 C 4,3 km/h (1 Bft)
29.07.2017 09:00 19,0 C 69 % 1016,8 hPa 0,0 l/m 3,8 km/h (1 Bft) O-NO 13,3 C 19,0 C 10,1 km/h (2 Bft)
29.07.2017 10:00 20,2 C 64 % 1016,8 hPa 0,0 l/m 4,8 km/h (1 Bft) O 13,2 C 20,2 C 12,1 km/h (2 Bft)
29.07.2017 11:00 21,1 C 61 % 1016,7 hPa 0,0 l/m 5,0 km/h (1 Bft) O-NO 13,4 C 21,0 C 12,1 km/h (2 Bft)
29.07.2017 12:00 21,7 C 62 % 1016,4 hPa 0,0 l/m 3,9 km/h (1 Bft) O-NO 14,0 C 21,6 C 8,6 km/h (2 Bft)
29.07.2017 13:00 23,4 C 58 % 1015,8 hPa 0,0 l/m 3,9 km/h (1 Bft) NO 14,6 C 23,4 C 10,5 km/h (2 Bft)
29.07.2017 14:00 24,9 C 53 % 1015,1 hPa 0,0 l/m 4,3 km/h (1 Bft) O-NO 14,7 C 24,9 C 9,7 km/h (2 Bft)
29.07.2017 15:00 25,7 C 52 % 1014,5 hPa 0,0 l/m 2,3 km/h (1 Bft) N-NO 15,1 C 25,7 C 6,3 km/h (2 Bft)
29.07.2017 16:00 27,6 C 47 % 1013,7 hPa 0,0 l/m 2,4 km/h (1 Bft) O-NO 15,3 C 27,6 C 6,8 km/h (2 Bft)
29.07.2017 17:00 28,2 C 47 % 1013,1 hPa 0,0 l/m 2,5 km/h (1 Bft) O-NO 15,8 C 28,2 C 7,0 km/h (2 Bft)
29.07.2017 18:00 28,3 C 47 % 1012,5 hPa 0,0 l/m 1,4 km/h (1 Bft) N-NW 15,8 C 28,3 C 5,3 km/h (1 Bft)
29.07.2017 19:00 26,0 C 54 % 1012,3 hPa 0,0 l/m 1,9 km/h (1 Bft) O 15,8 C 26,0 C 6,4 km/h (2 Bft)
29.07.2017 20:00 23,4 C 65 % 1012,3 hPa 0,0 l/m 0,2 km/h (0 Bft) O 16,3 C 23,4 C 1,2 km/h (1 Bft)
29.07.2017 21:00 20,0 C 79 % 1012,5 hPa 0,0 l/m 0,1 km/h (0 Bft) O 16,2 C 20,0 C 1,2 km/h (1 Bft)
29.07.2017 22:00 17,6 C 86 % 1012,4 hPa 0,0 l/m 0,0 km/h (0 Bft) O 15,3 C 17,6 C 0,3 km/h (0 Bft)
29.07.2017 23:00 16,2 C 90 % 1012,3 hPa 0,0 l/m 0,0 km/h (0 Bft) O 14,5 C 16,2 C 0,7 km/h (0 Bft)
30.07.2017 00:00 15,7 C 91 % 1012,2 hPa 0,0 l/m 0,0 km/h (0 Bft) O 14,2 C 15,7 C 0,0 km/h (0 Bft)
30.07.2017 01:00 14,7 C 93 % 1012,0 hPa 0,0 l/m 0,0 km/h (0 Bft) O 13,6 C 14,7 C 0,3 km/h (0 Bft)
30.07.2017 02:00 14,5 C 94 % 1011,8 hPa 0,0 l/m 0,4 km/h (0 Bft) O 13,6 C 14,5 C 1,9 km/h (1 Bft)
30.07.2017 03:00 16,4 C 89 % 1011,3 hPa 0,0 l/m 1,3 km/h (1 Bft) O-NO 14,6 C 16,4 C 5,1 km/h (1 Bft)
30.07.2017 04:00 16,1 C 89 % 1011,1 hPa 0,0 l/m 0,4 km/h (0 Bft) O-NO 14,2 C 16,1 C 2,4 km/h (1 Bft)
30.07.2017 05:00 14,9 C 92 % 1010,9 hPa 0,0 l/m 0,0 km/h (0 Bft) O-NO 13,6 C 14,9 C 0,8 km/h (0 Bft)
30.07.2017 06:00 13,9 C 94 % 1010,8 hPa 0,0 l/m 0,0 km/h (0 Bft) O-NO 13,0 C 13,9 C 0,1 km/h (0 Bft)
30.07.2017 07:00 15,6 C 94 % 1010,8 hPa 0,0 l/m 0,0 km/h (0 Bft) O-NO 14,7 C 15,6 C 0,7 km/h (0 Bft)
30.07.2017 08:00 21,3 C 75 % 1010,8 hPa 0,0 l/m 2,4 km/h (1 Bft) NO 16,6 C 21,3 C 7,9 km/h (2 Bft)
30.07.2017 09:00 23,5 C 64 % 1010,9 hPa 0,0 l/m 6,2 km/h (2 Bft) O-NO 16,2 C 23,5 C 15,4 km/h (3 Bft)
30.07.2017 10:00 24,6 C 62 % 1011,2 hPa 0,0 l/m 6,5 km/h (2 Bft) O-NO 16,8 C 24,4 C 14,9 km/h (3 Bft)
30.07.2017 11:00 25,8 C 58 % 1011,1 hPa 0,0 l/m 5,4 km/h (2 Bft) O-NO 16,9 C 25,8 C 12,3 km/h (2 Bft)
30.07.2017 12:00 26,0 C 58 % 1010,9 hPa 0,0 l/m 5,0 km/h (1 Bft) NO 17,0 C 26,0 C 11,8 km/h (2 Bft)
30.07.2017 13:00 25,2 C 60 % 1011,0 hPa 0,0 l/m 4,5 km/h (1 Bft) O-NO 16,7 C 25,2 C 12,0 km/h (2 Bft)
30.07.2017 14:00 26,5 C 56 % 1011,1 hPa 0,0 l/m 6,4 km/h (2 Bft) O-SO 16,9 C 26,4 C 14,6 km/h (3 Bft)
30.07.2017 15:00 26,3 C 55 % 1010,7 hPa 0,0 l/m 5,5 km/h (2 Bft) O-NO 16,5 C 26,3 C 13,4 km/h (3 Bft)
30.07.2017 16:00 25,9 C 57 % 1010,7 hPa 0,0 l/m 4,3 km/h (1 Bft) NO 16,6 C 25,9 C 10,1 km/h (2 Bft)
30.07.2017 17:00 26,2 C 56 % 1010,8 hPa 0,0 l/m 5,1 km/h (1 Bft) N-NO 16,7 C 26,2 C 12,8 km/h (3 Bft)
30.07.2017 18:00 26,2 C 55 % 1010,8 hPa 0,0 l/m 4,4 km/h (1 Bft) O-NO 16,4 C 26,2 C 11,8 km/h (2 Bft)
30.07.2017 19:00 24,9 C 58 % 1010,8 hPa 0,0 l/m 3,8 km/h (1 Bft) O-NO 16,0 C 24,9 C 9,8 km/h (2 Bft)
30.07.2017 20:00 23,0 C 69 % 1010,8 hPa 0,0 l/m 1,5 km/h (1 Bft) O-NO 16,9 C 23,0 C 4,9 km/h (1 Bft)
30.07.2017 21:00 20,3 C 81 % 1011,6 hPa 0,0 l/m 0,0 km/h (0 Bft) O-NO 16,9 C 20,3 C 0,8 km/h (0 Bft)
30.07.2017 22:00 18,6 C 88 % 1012,4 hPa 0,0 l/m 0,2 km/h (0 Bft) O-NO 16,6 C 18,6 C 1,6 km/h (1 Bft)
30.07.2017 23:00 18,2 C 90 % 1012,1 hPa 0,0 l/m 0,5 km/h (0 Bft) NO 16,6 C 18,2 C 2,0 km/h (1 Bft)
Min-Datum _ 27.07.17 29.07.17 24.07.17 - 30.07.17 - 27.07.17 26.07.17 30.07.17
_ Min-Zeit 01:10 18:10 09:00 - 23:10 - 01:35 13:02 23:15
Minimum _ 9,5 C 45 % 1007,1 hPa - 0,0 km/h (0 Bft) - 8,8 C 9,4 C 0,0 km/h (0 Bft)
Max-Datum _ 29.07.17 29.07.17 29.07.17 24.07.17 26.07.17 - 30.07.17 29.07.17 24.07.17
_ Max-Zeit 18:30 07:25 11:20 23:20 13:02 - 12:03 18:30 16:10
Maximum _ 28,6 C 98 % 1016,9 hPa 6,1 l/m 11,3 km/h
O (2 Bft)
- 17,8 C 28,6 C 27,4 km/h
O-NO (5 Bft)
Durchschnitt _ 15,5 C 85 % 1011,6 hPa #44,2 l/m 2,7 km/h (1 Bft) O-NO 12,7 C 15,5 C 7,2 km/h (2 Bft)